Townsends Inlet, New Jersey
Current Conditions -  °F | °C
As of 7:15 AM on Friday 19 Dec 2014 (Local Time) from KWWD Reporting Station
Overcast Overcast  
Wind Chill: 30°   Ceiling: 3000
Heat Index: 37°   Visibility: 10mi
Dew Point: 25°   Wind: 10mph
Humidity: 60%   Direction: 290°WNW
Pressure: 30.07"   Gusts: 17mph
Location:  39.1517°N, 74.697°W
Report Text: KWWD 191215Z AUTO 29009G15KT 10SM OVC030 03/M04 A3007 RMK AO1
Loading
Personal Weather Stations






























Interactive Weather Map New forecast layout! Learn more

10-Day Weather Forecast

Advertisements
Track Severe Weather on mobile